If you wish to contribute or participate in the discussions about articles you are invited to join SKYbrary as a registered user

 Actions

Bradshaw Army Airfield

From SKYbrary Wiki

PHSF
Airport
ICAO: PHSF – IATA: BSF
Summary
Name Bradshaw Army Airfield
Region North America
Territory Hawaii US.gif
Location Pohakuloa, Hawaii
Serving Bradshaw Field
Elevation 1,886.712 m
6,190 ft
6,190 ft1,886.712 m
Type medium airport
Coordinates 19° 45' 36.20" N, 155° 33' 13.38" W
Runways
Designator Length Width Surface ROPS
9/27 1126 m3,694.226 ft
27 m88.583 ft
ASP /


METAR
Observation PHSF 201956Z AUTO 19013G21KT 10SM CLR 21/07 A3038 RMK AO2 PK WND 18028/20 SLPNO WND DATA ESTMD T02080069 $
Station Bradshaw Army Air Field / Hawaii
Date/Time 20 April 2019 19:56:00
Wind direction 190°
Wind speed 13 kts
Lowest cloud amount n/a
Temperature 20.8°C
Dew point 6.9°C
Humidity 40%
QNH hPa
Weather condition n/a

Maps

Terrain

Loading map...

Airport Layout

Loading map...


Accidents & Serious Incidents at or in vicinity of PHSF

None on SKYbrary